Hague, Virginia
Current Conditions -  °F | °C
As of 9:53 AM on Friday 24 Oct 2014 (Local Time) from KNUI Reporting Station
NA  
Wind Chill: 58°   Ceiling: NA
Heat Index: 58°   Visibility: 10mi
Dew Point: 43°   Wind: 15mph
Humidity: 58%   Direction: 290°WNW
Pressure: 29.97"   Gusts: 23mph
Location:  38.07°N, 76.65°W
Report Text: KNUI 241353Z AUTO 29013G20KT 10SM 14/06 A2997 RMK AO2 SLP147 T01440061 $
Loading
Personal Weather Stations






























Interactive Weather Map
Tropical Storm Tracking
New forecast layout! Learn more

10-Day Weather Forecast

Advertisements
Track Severe Weather on mobile